sensor_id;sensor_type;location;lat;lon;timestamp;P1;durP1;ratioP1;P2;durP2;ratioP2
26038;SDS011;13815;52.374;4.882;2022-11-20T00:01:17;33.90;;;25.75;;
26038;SDS011;13815;52.374;4.882;2022-11-20T00:03:44;27.75;;;25.00;;
26038;SDS011;13815;52.374;4.882;2022-11-20T00:06:11;37.75;;;24.73;;
26038;SDS011;13815;52.374;4.882;2022-11-20T00:08:37;31.35;;;24.95;;
26038;SDS011;13815;52.374;4.882;2022-11-20T00:11:07;26.55;;;23.98;;
26038;SDS011;13815;52.374;4.882;2022-11-20T00:13:34;27.90;;;24.40;;
26038;SDS011;13815;52.374;4.882;2022-11-20T00:16:00;28.15;;;24.38;;
26038;SDS011;13815;52.374;4.882;2022-11-20T00:18:27;35.53;;;24.25;;
26038;SDS011;13815;52.374;4.882;2022-11-20T00:20:53;23.98;;;21.45;;
26038;SDS011;13815;52.374;4.882;2022-11-20T00:23:19;23.58;;;21.20;;
26038;SDS011;13815;52.374;4.882;2022-11-20T00:25:44;27.15;;;21.73;;
26038;SDS011;13815;52.374;4.882;2022-11-20T00:28:10;29.00;;;21.60;;
26038;SDS011;13815;52.374;4.882;2022-11-20T00:30:38;23.02;;;20.60;;
26038;SDS011;13815;52.374;4.882;2022-11-20T00:33:05;31.85;;;21.13;;
26038;SDS011;13815;52.374;4.882;2022-11-20T00:35:30;23.30;;;21.08;;
26038;SDS011;13815;52.374;4.882;2022-11-20T00:37:55;28.90;;;22.27;;
26038;SDS011;13815;52.374;4.882;2022-11-20T00:40:21;44.53;;;24.23;;
26038;SDS011;13815;52.374;4.882;2022-11-20T00:42:46;25.70;;;22.45;;
26038;SDS011;13815;52.374;4.882;2022-11-20T00:45:11;26.35;;;23.05;;
26038;SDS011;13815;52.374;4.882;2022-11-20T00:47:37;25.20;;;22.60;;
26038;SDS011;13815;52.374;4.882;2022-11-20T00:50:03;28.48;;;23.05;;
26038;SDS011;13815;52.374;4.882;2022-11-20T00:52:29;25.33;;;21.70;;
26038;SDS011;13815;52.374;4.882;2022-11-20T00:54:54;26.88;;;21.27;;
26038;SDS011;13815;52.374;4.882;2022-11-20T00:57:19;22.85;;;20.38;;
26038;SDS011;13815;52.374;4.882;2022-11-20T00:59:48;26.40;;;20.63;;
26038;SDS011;13815;52.374;4.882;2022-11-20T01:02:13;21.77;;;19.45;;
26038;SDS011;13815;52.374;4.882;2022-11-20T01:04:41;22.60;;;20.20;;
26038;SDS011;13815;52.374;4.882;2022-11-20T01:07:07;31.17;;;20.45;;
26038;SDS011;13815;52.374;4.882;2022-11-20T01:09:33;20.75;;;18.70;;
26038;SDS011;13815;52.374;4.882;2022-11-20T01:11:58;20.70;;;18.55;;
26038;SDS011;13815;52.374;4.882;2022-11-20T01:14:26;22.30;;;18.35;;
26038;SDS011;13815;52.374;4.882;2022-11-20T01:16:51;19.63;;;18.02;;
26038;SDS011;13815;52.374;4.882;2022-11-20T01:19:21;21.48;;;19.13;;
26038;SDS011;13815;52.374;4.882;2022-11-20T01:21:49;27.92;;;19.50;;
26038;SDS011;13815;52.374;4.882;2022-11-20T01:24:17;25.58;;;19.23;;
26038;SDS011;13815;52.374;4.882;2022-11-20T01:26:44;24.38;;;18.42;;
26038;SDS011;13815;52.374;4.882;2022-11-20T01:29:15;19.48;;;17.33;;
26038;SDS011;13815;52.374;4.882;2022-11-20T01:31:42;19.42;;;17.63;;
26038;SDS011;13815;52.374;4.882;2022-11-20T01:34:12;21.98;;;18.83;;
26038;SDS011;13815;52.374;4.882;2022-11-20T01:36:39;41.50;;;19.90;;
26038;SDS011;13815;52.374;4.882;2022-11-20T01:39:07;27.45;;;18.75;;
26038;SDS011;13815;52.374;4.882;2022-11-20T01:41:36;20.40;;;18.40;;
26038;SDS011;13815;52.374;4.882;2022-11-20T01:44:21;25.80;;;18.65;;
26038;SDS011;13815;52.374;4.882;2022-11-20T01:47:04;21.48;;;18.10;;
26038;SDS011;13815;52.374;4.882;2022-11-20T01:52:05;20.05;;;18.13;;
26038;SDS011;13815;52.374;4.882;2022-11-20T01:54:38;19.73;;;16.23;;
26038;SDS011;13815;52.374;4.882;2022-11-20T01:57:06;16.90;;;15.70;;
26038;SDS011;13815;52.374;4.882;2022-11-20T01:59:34;16.15;;;14.95;;
26038;SDS011;13815;52.374;4.882;2022-11-20T02:02:01;21.58;;;15.20;;
26038;SDS011;13815;52.374;4.882;2022-11-20T02:04:26;19.98;;;14.88;;
26038;SDS011;13815;52.374;4.882;2022-11-20T02:06:53;20.15;;;15.52;;
26038;SDS011;13815;52.374;4.882;2022-11-20T02:09:22;17.73;;;16.00;;
26038;SDS011;13815;52.374;4.882;2022-11-20T02:11:47;22.33;;;16.40;;
26038;SDS011;13815;52.374;4.882;2022-11-20T02:14:13;23.35;;;16.23;;
26038;SDS011;13815;52.374;4.882;2022-11-20T02:16:40;16.88;;;15.55;;
26038;SDS011;13815;52.374;4.882;2022-11-20T02:19:13;20.73;;;16.20;;
26038;SDS011;13815;52.374;4.882;2022-11-20T02:24:22;16.95;;;14.52;;
26038;SDS011;13815;52.374;4.882;2022-11-20T02:26:55;15.60;;;14.35;;
26038;SDS011;13815;52.374;4.882;2022-11-20T02:29:32;14.55;;;13.57;;
26038;SDS011;13815;52.374;4.882;2022-11-20T02:32:27;14.75;;;13.52;;
26038;SDS011;13815;52.374;4.882;2022-11-20T02:34:57;13.90;;;12.65;;
26038;SDS011;13815;52.374;4.882;2022-11-20T02:37:22;13.18;;;12.27;;
26038;SDS011;13815;52.374;4.882;2022-11-20T02:39:49;36.58;;;15.75;;
26038;SDS011;13815;52.374;4.882;2022-11-20T02:42:18;14.25;;;12.48;;
26038;SDS011;13815;52.374;4.882;2022-11-20T02:44:44;12.70;;;11.93;;
26038;SDS011;13815;52.374;4.882;2022-11-20T02:47:09;21.08;;;13.98;;
26038;SDS011;13815;52.374;4.882;2022-11-20T02:49:34;13.93;;;12.77;;
26038;SDS011;13815;52.374;4.882;2022-11-20T02:52:00;12.57;;;11.82;;
26038;SDS011;13815;52.374;4.882;2022-11-20T02:54:25;13.52;;;12.18;;
26038;SDS011;13815;52.374;4.882;2022-11-20T02:56:51;13.80;;;12.48;;
26038;SDS011;13815;52.374;4.882;2022-11-20T02:59:17;11.68;;;10.80;;
26038;SDS011;13815;52.374;4.882;2022-11-20T03:01:42;13.20;;;11.50;;
26038;SDS011;13815;52.374;4.882;2022-11-20T03:04:07;13.88;;;11.10;;
26038;SDS011;13815;52.374;4.882;2022-11-20T03:06:34;11.77;;;10.77;;
26038;SDS011;13815;52.374;4.882;2022-11-20T03:09:00;13.60;;;11.30;;
26038;SDS011;13815;52.374;4.882;2022-11-20T03:11:25;11.90;;;11.10;;
26038;SDS011;13815;52.374;4.882;2022-11-20T03:13:51;14.52;;;11.93;;
26038;SDS011;13815;52.374;4.882;2022-11-20T03:16:17;12.00;;;11.10;;
26038;SDS011;13815;52.374;4.882;2022-11-20T03:18:45;11.18;;;10.52;;
26038;SDS011;13815;52.374;4.882;2022-11-20T03:21:11;18.25;;;11.35;;
26038;SDS011;13815;52.374;4.882;2022-11-20T03:23:37;11.27;;;10.48;;
26038;SDS011;13815;52.374;4.882;2022-11-20T03:26:38;11.73;;;10.77;;
26038;SDS011;13815;52.374;4.882;2022-11-20T03:29:01;16.25;;;11.65;;
26038;SDS011;13815;52.374;4.882;2022-11-20T03:31:28;11.88;;;10.98;;
26038;SDS011;13815;52.374;4.882;2022-11-20T03:33:56;10.60;;;10.10;;
26038;SDS011;13815;52.374;4.882;2022-11-20T03:36:22;11.73;;;10.93;;
26038;SDS011;13815;52.374;4.882;2022-11-20T03:38:47;16.92;;;10.98;;
26038;SDS011;13815;52.374;4.882;2022-11-20T03:41:14;11.23;;;10.35;;
26038;SDS011;13815;52.374;4.882;2022-11-20T03:43:46;11.10;;;9.85;;
26038;SDS011;13815;52.374;4.882;2022-11-20T03:46:13;11.15;;;9.75;;
26038;SDS011;13815;52.374;4.882;2022-11-20T03:48:38;9.43;;;8.93;;
26038;SDS011;13815;52.374;4.882;2022-11-20T03:51:11;20.85;;;10.50;;
26038;SDS011;13815;52.374;4.882;2022-11-20T03:53:45;10.25;;;9.57;;
26038;SDS011;13815;52.374;4.882;2022-11-20T03:56:12;13.60;;;8.90;;
26038;SDS011;13815;52.374;4.882;2022-11-20T03:58:38;12.98;;;8.90;;
26038;SDS011;13815;52.374;4.882;2022-11-20T04:01:05;8.40;;;7.80;;
26038;SDS011;13815;52.374;4.882;2022-11-20T04:03:32;14.77;;;7.90;;
26038;SDS011;13815;52.374;4.882;2022-11-20T04:06:01;8.38;;;7.72;;
26038;SDS011;13815;52.374;4.882;2022-11-20T04:08:29;7.18;;;6.90;;
26038;SDS011;13815;52.374;4.882;2022-11-20T04:10:55;6.82;;;6.53;;
26038;SDS011;13815;52.374;4.882;2022-11-20T04:13:20;7.10;;;6.60;;
26038;SDS011;13815;52.374;4.882;2022-11-20T04:15:45;8.25;;;6.68;;
26038;SDS011;13815;52.374;4.882;2022-11-20T04:18:11;14.57;;;8.07;;
26038;SDS011;13815;52.374;4.882;2022-11-20T04:20:36;10.48;;;6.20;;
26038;SDS011;13815;52.374;4.882;2022-11-20T04:23:02;11.07;;;7.35;;
26038;SDS011;13815;52.374;4.882;2022-11-20T04:25:27;6.70;;;5.80;;
26038;SDS011;13815;52.374;4.882;2022-11-20T04:27:52;6.97;;;5.13;;
26038;SDS011;13815;52.374;4.882;2022-11-20T04:30:18;12.32;;;5.43;;
26038;SDS011;13815;52.374;4.882;2022-11-20T04:32:43;10.65;;;5.72;;
26038;SDS011;13815;52.374;4.882;2022-11-20T04:35:08;15.07;;;5.95;;
26038;SDS011;13815;52.374;4.882;2022-11-20T04:37:34;5.35;;;4.32;;
26038;SDS011;13815;52.374;4.882;2022-11-20T04:39:59;5.20;;;4.28;;
26038;SDS011;13815;52.374;4.882;2022-11-20T04:42:27;9.52;;;5.40;;
26038;SDS011;13815;52.374;4.882;2022-11-20T04:44:53;10.45;;;5.20;;
26038;SDS011;13815;52.374;4.882;2022-11-20T04:47:18;12.35;;;5.20;;
26038;SDS011;13815;52.374;4.882;2022-11-20T04:49:44;9.68;;;4.80;;
26038;SDS011;13815;52.374;4.882;2022-11-20T04:52:09;5.30;;;4.32;;
26038;SDS011;13815;52.374;4.882;2022-11-20T04:54:34;4.15;;;3.95;;
26038;SDS011;13815;52.374;4.882;2022-11-20T04:57:00;5.82;;;4.47;;
26038;SDS011;13815;52.374;4.882;2022-11-20T04:59:25;5.10;;;4.45;;
26038;SDS011;13815;52.374;4.882;2022-11-20T05:01:51;8.52;;;4.85;;
26038;SDS011;13815;52.374;4.882;2022-11-20T05:04:16;7.40;;;5.07;;
26038;SDS011;13815;52.374;4.882;2022-11-20T05:06:41;15.45;;;5.28;;
26038;SDS011;13815;52.374;4.882;2022-11-20T05:09:07;6.38;;;4.95;;
26038;SDS011;13815;52.374;4.882;2022-11-20T05:11:32;12.18;;;6.03;;
26038;SDS011;13815;52.374;4.882;2022-11-20T05:13:58;7.70;;;5.70;;
26038;SDS011;13815;52.374;4.882;2022-11-20T05:16:24;5.10;;;4.60;;
26038;SDS011;13815;52.374;4.882;2022-11-20T05:18:50;14.63;;;5.57;;
26038;SDS011;13815;52.374;4.882;2022-11-20T05:21:16;6.80;;;5.00;;
26038;SDS011;13815;52.374;4.882;2022-11-20T05:23:42;9.02;;;4.55;;
26038;SDS011;13815;52.374;4.882;2022-11-20T05:26:12;18.40;;;5.47;;
26038;SDS011;13815;52.374;4.882;2022-11-20T05:28:40;16.73;;;5.75;;
26038;SDS011;13815;52.374;4.882;2022-11-20T05:31:06;6.50;;;3.40;;
26038;SDS011;13815;52.374;4.882;2022-11-20T05:33:35;9.85;;;3.90;;
26038;SDS011;13815;52.374;4.882;2022-11-20T05:36:02;9.85;;;3.80;;
26038;SDS011;13815;52.374;4.882;2022-11-20T05:38:28;8.98;;;3.75;;
26038;SDS011;13815;52.374;4.882;2022-11-20T05:40:54;3.08;;;2.60;;
26038;SDS011;13815;52.374;4.882;2022-11-20T05:43:19;10.98;;;4.35;;
26038;SDS011;13815;52.374;4.882;2022-11-20T05:45:53;12.10;;;3.83;;
26038;SDS011;13815;52.374;4.882;2022-11-20T05:48:19;9.97;;;3.67;;
26038;SDS011;13815;52.374;4.882;2022-11-20T05:50:44;12.90;;;4.22;;
26038;SDS011;13815;52.374;4.882;2022-11-20T05:53:10;7.00;;;3.58;;
26038;SDS011;13815;52.374;4.882;2022-11-20T05:55:35;3.03;;;2.80;;
26038;SDS011;13815;52.374;4.882;2022-11-20T05:58:01;11.95;;;3.60;;
26038;SDS011;13815;52.374;4.882;2022-11-20T06:00:26;4.32;;;2.50;;
26038;SDS011;13815;52.374;4.882;2022-11-20T06:02:52;14.20;;;3.60;;
26038;SDS011;13815;52.374;4.882;2022-11-20T06:05:20;22.00;;;4.22;;
26038;SDS011;13815;52.374;4.882;2022-11-20T06:07:45;7.00;;;2.47;;
26038;SDS011;13815;52.374;4.882;2022-11-20T06:10:11;4.45;;;2.75;;
26038;SDS011;13815;52.374;4.882;2022-11-20T06:12:37;18.00;;;3.20;;
26038;SDS011;13815;52.374;4.882;2022-11-20T06:15:03;10.88;;;2.78;;
26038;SDS011;13815;52.374;4.882;2022-11-20T06:17:29;3.90;;;2.45;;
26038;SDS011;13815;52.374;4.882;2022-11-20T06:19:54;13.90;;;3.97;;
26038;SDS011;13815;52.374;4.882;2022-11-20T06:22:19;19.80;;;3.50;;
26038;SDS011;13815;52.374;4.882;2022-11-20T06:24:45;8.52;;;3.30;;
26038;SDS011;13815;52.374;4.882;2022-11-20T06:27:10;6.93;;;2.55;;
26038;SDS011;13815;52.374;4.882;2022-11-20T06:29:35;2.95;;;2.25;;
26038;SDS011;13815;52.374;4.882;2022-11-20T06:32:01;24.13;;;4.65;;
26038;SDS011;13815;52.374;4.882;2022-11-20T06:34:29;3.33;;;2.15;;
26038;SDS011;13815;52.374;4.882;2022-11-20T06:36:54;3.15;;;2.30;;
26038;SDS011;13815;52.374;4.882;2022-11-20T06:39:19;14.45;;;3.58;;
26038;SDS011;13815;52.374;4.882;2022-11-20T06:41:45;8.60;;;2.83;;
26038;SDS011;13815;52.374;4.882;2022-11-20T06:44:10;5.45;;;2.70;;
26038;SDS011;13815;52.374;4.882;2022-11-20T06:46:36;17.83;;;4.80;;
26038;SDS011;13815;52.374;4.882;2022-11-20T06:49:01;11.48;;;3.38;;
26038;SDS011;13815;52.374;4.882;2022-11-20T06:51:27;3.30;;;2.47;;
26038;SDS011;13815;52.374;4.882;2022-11-20T06:53:52;27.48;;;4.75;;
26038;SDS011;13815;52.374;4.882;2022-11-20T06:56:18;4.97;;;2.55;;
26038;SDS011;13815;52.374;4.882;2022-11-20T06:58:43;6.35;;;3.55;;
26038;SDS011;13815;52.374;4.882;2022-11-20T07:01:09;16.20;;;3.05;;
26038;SDS011;13815;52.374;4.882;2022-11-20T07:03:43;4.43;;;2.33;;
26038;SDS011;13815;52.374;4.882;2022-11-20T07:08:34;9.57;;;3.50;;
26038;SDS011;13815;52.374;4.882;2022-11-20T07:11:00;10.25;;;2.38;;
26038;SDS011;13815;52.374;4.882;2022-11-20T07:13:28;12.80;;;3.58;;
26038;SDS011;13815;52.374;4.882;2022-11-20T07:15:54;3.92;;;2.15;;
26038;SDS011;13815;52.374;4.882;2022-11-20T07:18:20;4.97;;;2.00;;
26038;SDS011;13815;52.374;4.882;2022-11-20T07:20:45;17.75;;;2.83;;
26038;SDS011;13815;52.374;4.882;2022-11-20T07:23:10;1.95;;;1.33;;
26038;SDS011;13815;52.374;4.882;2022-11-20T07:25:36;2.80;;;1.73;;
26038;SDS011;13815;52.374;4.882;2022-11-20T07:28:01;19.17;;;3.30;;
26038;SDS011;13815;52.374;4.882;2022-11-20T07:30:27;7.72;;;2.60;;
26038;SDS011;13815;52.374;4.882;2022-11-20T07:32:53;3.15;;;1.98;;
26038;SDS011;13815;52.374;4.882;2022-11-20T07:35:19;20.10;;;3.75;;
26038;SDS011;13815;52.374;4.882;2022-11-20T07:37:45;7.97;;;2.72;;
26038;SDS011;13815;52.374;4.882;2022-11-20T07:40:11;5.85;;;2.40;;
26038;SDS011;13815;52.374;4.882;2022-11-20T07:42:37;3.17;;;1.70;;
26038;SDS011;13815;52.374;4.882;2022-11-20T07:45:02;3.38;;;1.90;;
26038;SDS011;13815;52.374;4.882;2022-11-20T07:47:28;10.98;;;1.67;;
26038;SDS011;13815;52.374;4.882;2022-11-20T07:49:53;10.48;;;2.15;;
26038;SDS011;13815;52.374;4.882;2022-11-20T07:52:19;2.95;;;1.42;;
26038;SDS011;13815;52.374;4.882;2022-11-20T07:54:44;30.77;;;3.35;;
26038;SDS011;13815;52.374;4.882;2022-11-20T07:57:10;12.52;;;2.60;;
26038;SDS011;13815;52.374;4.882;2022-11-20T07:59:35;7.35;;;2.05;;
26038;SDS011;13815;52.374;4.882;2022-11-20T08:02:00;10.73;;;1.70;;
26038;SDS011;13815;52.374;4.882;2022-11-20T08:04:26;4.60;;;1.52;;
26038;SDS011;13815;52.374;4.882;2022-11-20T08:06:51;2.33;;;0.95;;
26038;SDS011;13815;52.374;4.882;2022-11-20T08:09:17;4.00;;;1.20;;
26038;SDS011;13815;52.374;4.882;2022-11-20T08:11:42;0.73;;;0.73;;
26038;SDS011;13815;52.374;4.882;2022-11-20T08:14:26;10.15;;;1.45;;
26038;SDS011;13815;52.374;4.882;2022-11-20T08:16:52;12.02;;;2.17;;
26038;SDS011;13815;52.374;4.882;2022-11-20T08:19:18;6.43;;;1.90;;
26038;SDS011;13815;52.374;4.882;2022-11-20T08:21:43;9.75;;;1.40;;
26038;SDS011;13815;52.374;4.882;2022-11-20T08:24:09;7.97;;;1.17;;
26038;SDS011;13815;52.374;4.882;2022-11-20T08:26:36;2.20;;;1.00;;
26038;SDS011;13815;52.374;4.882;2022-11-20T08:29:02;3.13;;;1.65;;
26038;SDS011;13815;52.374;4.882;2022-11-20T08:31:28;16.25;;;2.65;;
26038;SDS011;13815;52.374;4.882;2022-11-20T08:33:54;9.07;;;1.80;;
26038;SDS011;13815;52.374;4.882;2022-11-20T08:39:01;8.65;;;2.20;;
26038;SDS011;13815;52.374;4.882;2022-11-20T08:41:28;12.05;;;2.97;;
26038;SDS011;13815;52.374;4.882;2022-11-20T08:43:56;6.80;;;1.83;;
26038;SDS011;13815;52.374;4.882;2022-11-20T08:46:26;11.48;;;2.28;;
26038;SDS011;13815;52.374;4.882;2022-11-20T08:49:14;3.08;;;1.15;;
26038;SDS011;13815;52.374;4.882;2022-11-20T08:51:40;3.00;;;1.15;;
26038;SDS011;13815;52.374;4.882;2022-11-20T08:54:06;5.10;;;1.98;;
26038;SDS011;13815;52.374;4.882;2022-11-20T08:56:31;3.97;;;1.35;;
26038;SDS011;13815;52.374;4.882;2022-11-20T08:59:00;11.82;;;1.58;;
26038;SDS011;13815;52.374;4.882;2022-11-20T09:04:32;15.45;;;2.42;;
26038;SDS011;13815;52.374;4.882;2022-11-20T09:07:00;5.05;;;2.08;;
26038;SDS011;13815;52.374;4.882;2022-11-20T09:09:25;11.10;;;1.58;;
26038;SDS011;13815;52.374;4.882;2022-11-20T09:11:51;6.82;;;1.92;;
26038;SDS011;13815;52.374;4.882;2022-11-20T09:14:16;12.35;;;3.03;;
26038;SDS011;13815;52.374;4.882;2022-11-20T09:16:42;10.73;;;1.75;;
26038;SDS011;13815;52.374;4.882;2022-11-20T09:19:09;2.33;;;0.77;;
26038;SDS011;13815;52.374;4.882;2022-11-20T09:21:37;10.77;;;4.47;;
26038;SDS011;13815;52.374;4.882;2022-11-20T09:24:02;2.22;;;1.00;;
26038;SDS011;13815;52.374;4.882;2022-11-20T09:26:29;6.22;;;1.85;;
26038;SDS011;13815;52.374;4.882;2022-11-20T09:28:55;9.05;;;1.85;;
26038;SDS011;13815;52.374;4.882;2022-11-20T09:31:29;3.25;;;1.33;;
26038;SDS011;13815;52.374;4.882;2022-11-20T09:33:55;6.15;;;1.45;;
26038;SDS011;13815;52.374;4.882;2022-11-20T09:36:22;19.48;;;3.03;;
26038;SDS011;13815;52.374;4.882;2022-11-20T09:38:53;4.43;;;2.15;;
26038;SDS011;13815;52.374;4.882;2022-11-20T10:03:36;53.35;;;5.93;;
26038;SDS011;13815;52.374;4.882;2022-11-20T10:06:15;7.05;;;2.53;;
26038;SDS011;13815;52.374;4.882;2022-11-20T10:08:48;7.50;;;2.53;;
26038;SDS011;13815;52.374;4.882;2022-11-20T10:34:07;4.38;;;2.95;;
26038;SDS011;13815;52.374;4.882;2022-11-20T10:37:55;12.43;;;2.03;;
26038;SDS011;13815;52.374;4.882;2022-11-20T11:01:39;28.92;;;3.08;;
26038;SDS011;13815;52.374;4.882;2022-11-20T11:04:23;19.38;;;2.47;;
26038;SDS011;13815;52.374;4.882;2022-11-20T11:07:05;8.10;;;2.53;;
26038;SDS011;13815;52.374;4.882;2022-11-20T11:09:53;9.65;;;1.40;;
26038;SDS011;13815;52.374;4.882;2022-11-20T11:12:32;14.27;;;3.28;;
26038;SDS011;13815;52.374;4.882;2022-11-20T11:17:56;22.70;;;2.72;;
26038;SDS011;13815;52.374;4.882;2022-11-20T11:20:34;29.45;;;3.97;;
26038;SDS011;13815;52.374;4.882;2022-11-20T11:29:36;37.23;;;3.93;;
26038;SDS011;13815;52.374;4.882;2022-11-20T11:32:05;8.98;;;1.92;;
26038;SDS011;13815;52.374;4.882;2022-11-20T11:34:33;16.70;;;2.35;;
26038;SDS011;13815;52.374;4.882;2022-11-20T11:37:00;11.23;;;1.70;;
26038;SDS011;13815;52.374;4.882;2022-11-20T11:39:27;7.85;;;1.55;;
26038;SDS011;13815;52.374;4.882;2022-11-20T11:42:05;8.30;;;3.63;;
26038;SDS011;13815;52.374;4.882;2022-11-20T11:44:31;16.17;;;1.52;;
26038;SDS011;13815;52.374;4.882;2022-11-20T11:53:12;13.27;;;1.98;;
26038;SDS011;13815;52.374;4.882;2022-11-20T11:55:58;8.13;;;1.65;;
26038;SDS011;13815;52.374;4.882;2022-11-20T12:02:15;7.07;;;2.10;;
26038;SDS011;13815;52.374;4.882;2022-11-20T12:14:01;7.38;;;0.93;;
26038;SDS011;13815;52.374;4.882;2022-11-20T12:16:33;37.75;;;4.10;;
26038;SDS011;13815;52.374;4.882;2022-11-20T12:19:10;16.23;;;1.50;;
26038;SDS011;13815;52.374;4.882;2022-11-20T12:21:49;6.55;;;1.10;;
26038;SDS011;13815;52.374;4.882;2022-11-20T12:24:51;20.92;;;1.95;;
26038;SDS011;13815;52.374;4.882;2022-11-20T12:30:26;15.82;;;5.05;;
26038;SDS011;13815;52.374;4.882;2022-11-20T12:35:32;6.20;;;1.13;;
26038;SDS011;13815;52.374;4.882;2022-11-20T12:40:50;5.28;;;0.70;;
26038;SDS011;13815;52.374;4.882;2022-11-20T12:43:27;12.85;;;2.33;;
26038;SDS011;13815;52.374;4.882;2022-11-20T12:51:57;28.10;;;3.15;;
26038;SDS011;13815;52.374;4.882;2022-11-20T12:57:28;9.77;;;1.27;;
26038;SDS011;13815;52.374;4.882;2022-11-20T13:02:55;7.90;;;0.73;;
26038;SDS011;13815;52.374;4.882;2022-11-20T13:08:20;13.30;;;2.05;;
26038;SDS011;13815;52.374;4.882;2022-11-20T13:15:56;6.82;;;2.47;;
26038;SDS011;13815;52.374;4.882;2022-11-20T13:18:24;10.50;;;1.48;;
26038;SDS011;13815;52.374;4.882;2022-11-20T13:20:50;18.15;;;3.78;;
26038;SDS011;13815;52.374;4.882;2022-11-20T13:23:23;21.80;;;6.53;;
26038;SDS011;13815;52.374;4.882;2022-11-20T13:26:02;12.48;;;2.15;;
26038;SDS011;13815;52.374;4.882;2022-11-20T13:28:29;12.38;;;3.25;;
26038;SDS011;13815;52.374;4.882;2022-11-20T13:30:55;7.63;;;2.03;;
26038;SDS011;13815;52.374;4.882;2022-11-20T13:33:27;7.20;;;1.20;;
26038;SDS011;13815;52.374;4.882;2022-11-20T13:35:56;9.50;;;4.28;;
26038;SDS011;13815;52.374;4.882;2022-11-20T13:38:49;11.15;;;1.27;;
26038;SDS011;13815;52.374;4.882;2022-11-20T13:46:41;7.28;;;2.67;;
26038;SDS011;13815;52.374;4.882;2022-11-20T13:49:09;6.35;;;2.67;;
26038;SDS011;13815;52.374;4.882;2022-11-20T14:00:43;4.57;;;1.65;;
26038;SDS011;13815;52.374;4.882;2022-11-20T14:03:21;10.50;;;2.20;;
26038;SDS011;13815;52.374;4.882;2022-11-20T14:05:51;5.95;;;1.50;;
26038;SDS011;13815;52.374;4.882;2022-11-20T14:08:27;7.22;;;1.42;;
26038;SDS011;13815;52.374;4.882;2022-11-20T14:11:13;17.10;;;2.58;;
26038;SDS011;13815;52.374;4.882;2022-11-20T14:16:29;29.88;;;6.88;;
26038;SDS011;13815;52.374;4.882;2022-11-20T14:18:57;13.45;;;2.35;;
26038;SDS011;13815;52.374;4.882;2022-11-20T14:21:33;22.48;;;2.20;;
26038;SDS011;13815;52.374;4.882;2022-11-20T14:24:05;16.92;;;5.88;;
26038;SDS011;13815;52.374;4.882;2022-11-20T14:26:31;20.05;;;1.60;;
26038;SDS011;13815;52.374;4.882;2022-11-20T14:28:57;13.02;;;1.52;;
26038;SDS011;13815;52.374;4.882;2022-11-20T14:31:24;19.42;;;2.22;;
26038;SDS011;13815;52.374;4.882;2022-11-20T14:33:51;9.95;;;0.98;;
26038;SDS011;13815;52.374;4.882;2022-11-20T14:36:18;15.02;;;2.72;;
26038;SDS011;13815;52.374;4.882;2022-11-20T14:38:45;8.20;;;1.20;;
26038;SDS011;13815;52.374;4.882;2022-11-20T14:41:18;7.95;;;1.25;;
26038;SDS011;13815;52.374;4.882;2022-11-20T14:43:46;6.82;;;1.20;;
26038;SDS011;13815;52.374;4.882;2022-11-20T14:46:16;16.38;;;1.73;;
26038;SDS011;13815;52.374;4.882;2022-11-20T14:48:49;18.48;;;2.05;;
26038;SDS011;13815;52.374;4.882;2022-11-20T14:51:32;20.23;;;3.30;;
26038;SDS011;13815;52.374;4.882;2022-11-20T14:54:16;17.27;;;3.13;;
26038;SDS011;13815;52.374;4.882;2022-11-20T14:56:55;10.63;;;2.85;;
26038;SDS011;13815;52.374;4.882;2022-11-20T14:59:26;16.35;;;4.03;;
26038;SDS011;13815;52.374;4.882;2022-11-20T15:01:59;18.02;;;2.40;;
26038;SDS011;13815;52.374;4.882;2022-11-20T15:04:27;8.38;;;1.45;;
26038;SDS011;13815;52.374;4.882;2022-11-20T15:06:54;14.48;;;2.08;;
26038;SDS011;13815;52.374;4.882;2022-11-20T15:09:20;13.18;;;2.28;;
26038;SDS011;13815;52.374;4.882;2022-11-20T15:12:02;2.28;;;0.73;;
26038;SDS011;13815;52.374;4.882;2022-11-20T15:14:28;8.55;;;1.42;;
26038;SDS011;13815;52.374;4.882;2022-11-20T15:16:58;6.53;;;3.17;;
26038;SDS011;13815;52.374;4.882;2022-11-20T15:19:24;24.95;;;4.70;;
26038;SDS011;13815;52.374;4.882;2022-11-20T15:21:51;6.00;;;1.23;;
26038;SDS011;13815;52.374;4.882;2022-11-20T15:24:18;7.80;;;2.30;;
26038;SDS011;13815;52.374;4.882;2022-11-20T15:26:46;11.27;;;2.90;;
26038;SDS011;13815;52.374;4.882;2022-11-20T15:29:14;5.07;;;1.00;;
26038;SDS011;13815;52.374;4.882;2022-11-20T15:35:27;11.27;;;1.58;;
26038;SDS011;13815;52.374;4.882;2022-11-20T16:15:29;3.22;;;0.55;;
26038;SDS011;13815;52.374;4.882;2022-11-20T16:27:18;4.80;;;0.70;;
26038;SDS011;13815;52.374;4.882;2022-11-20T16:37:11;0.52;;;0.13;;
26038;SDS011;13815;52.374;4.882;2022-11-20T16:39:57;0.00;;;0.00;;
26038;SDS011;13815;52.374;4.882;2022-11-20T16:42:32;0.85;;;0.40;;
26038;SDS011;13815;52.374;4.882;2022-11-20T16:45:23;0.00;;;0.00;;
26038;SDS011;13815;52.374;4.882;2022-11-20T16:48:10;0.00;;;0.00;;
26038;SDS011;13815;52.374;4.882;2022-11-20T16:50:51;0.00;;;0.00;;
26038;SDS011;13815;52.374;4.882;2022-11-20T16:54:08;0.73;;;0.15;;
26038;SDS011;13815;52.374;4.882;2022-11-20T17:00:19;0.00;;;0.00;;
26038;SDS011;13815;52.374;4.882;2022-11-20T17:02:45;0.00;;;0.00;;
26038;SDS011;13815;52.374;4.882;2022-11-20T17:05:10;0.00;;;0.00;;
26038;SDS011;13815;52.374;4.882;2022-11-20T17:07:35;0.32;;;0.17;;
26038;SDS011;13815;52.374;4.882;2022-11-20T17:10:03;0.00;;;0.00;;
26038;SDS011;13815;52.374;4.882;2022-11-20T17:12:28;0.00;;;0.00;;
26038;SDS011;13815;52.374;4.882;2022-11-20T17:14:54;0.00;;;0.00;;
26038;SDS011;13815;52.374;4.882;2022-11-20T17:17:19;0.00;;;0.00;;
26038;SDS011;13815;52.374;4.882;2022-11-20T17:19:45;0.70;;;0.20;;
26038;SDS011;13815;52.374;4.882;2022-11-20T17:22:10;0.00;;;0.00;;
26038;SDS011;13815;52.374;4.882;2022-11-20T17:24:35;0.00;;;0.00;;
26038;SDS011;13815;52.374;4.882;2022-11-20T17:27:01;0.70;;;0.20;;
26038;SDS011;13815;52.374;4.882;2022-11-20T17:29:26;0.00;;;0.00;;
26038;SDS011;13815;52.374;4.882;2022-11-20T17:31:52;0.00;;;0.00;;
26038;SDS011;13815;52.374;4.882;2022-11-20T17:34:29;0.75;;;0.17;;
26038;SDS011;13815;52.374;4.882;2022-11-20T17:36:55;0.00;;;0.00;;
26038;SDS011;13815;52.374;4.882;2022-11-20T17:39:21;0.70;;;0.25;;
26038;SDS011;13815;52.374;4.882;2022-11-20T17:41:46;0.55;;;0.20;;
26038;SDS011;13815;52.374;4.882;2022-11-20T17:44:34;0.20;;;0.00;;
26038;SDS011;13815;52.374;4.882;2022-11-20T17:47:06;0.75;;;0.17;;
26038;SDS011;13815;52.374;4.882;2022-11-20T17:49:41;0.00;;;0.00;;
26038;SDS011;13815;52.374;4.882;2022-11-20T17:52:06;0.32;;;0.10;;
26038;SDS011;13815;52.374;4.882;2022-11-20T17:54:32;0.00;;;0.00;;
26038;SDS011;13815;52.374;4.882;2022-11-20T17:56:57;0.65;;;0.20;;
26038;SDS011;13815;52.374;4.882;2022-11-20T17:59:42;0.50;;;0.13;;
26038;SDS011;13815;52.374;4.882;2022-11-20T18:05:17;0.00;;;0.00;;
26038;SDS011;13815;52.374;4.882;2022-11-20T18:07:42;0.00;;;0.00;;
26038;SDS011;13815;52.374;4.882;2022-11-20T18:10:07;0.30;;;0.10;;
26038;SDS011;13815;52.374;4.882;2022-11-20T18:12:33;0.00;;;0.00;;
26038;SDS011;13815;52.374;4.882;2022-11-20T18:14:59;0.00;;;0.00;;
26038;SDS011;13815;52.374;4.882;2022-11-20T18:17:24;2.17;;;0.43;;
26038;SDS011;13815;52.374;4.882;2022-11-20T18:23:15;0.93;;;0.25;;
26038;SDS011;13815;52.374;4.882;2022-11-20T18:25:40;0.00;;;0.00;;
26038;SDS011;13815;52.374;4.882;2022-11-20T18:28:07;0.00;;;0.00;;
26038;SDS011;13815;52.374;4.882;2022-11-20T18:30:38;1.98;;;0.40;;